createdAt,value
2019-02-26T00:04:09.984Z,2.26
2019-02-26T00:06:42.450Z,2.25
2019-02-26T00:09:12.530Z,2.23
2019-02-26T00:11:42.744Z,2.24
2019-02-26T00:14:15.535Z,2.23
2019-02-26T00:16:46.673Z,2.24
2019-02-26T00:19:16.771Z,2.18
2019-02-26T00:21:47.951Z,2.20
2019-02-26T00:24:18.926Z,2.23
2019-02-26T00:26:49.136Z,2.20
2019-02-26T00:29:21.033Z,2.18
2019-02-26T00:31:52.922Z,2.16
2019-02-26T00:34:24.027Z,2.21
2019-02-26T00:36:54.355Z,2.19
2019-02-26T00:39:25.107Z,2.21
2019-02-26T00:41:58.133Z,2.28
2019-02-26T00:44:29.877Z,2.15
2019-02-26T00:47:02.705Z,2.28
2019-02-26T00:49:32.311Z,2.20
2019-02-26T00:52:04.048Z,2.18
2019-02-26T00:54:36.433Z,2.13
2019-02-26T00:57:08.599Z,2.13
2019-02-26T00:59:38.871Z,2.07
2019-02-26T01:02:10.327Z,1.98
2019-02-26T01:04:41.488Z,1.97
2019-02-26T01:07:12.514Z,2.04
2019-02-26T01:09:42.724Z,2.11
2019-02-26T01:12:13.711Z,2.02
2019-02-26T01:14:46.385Z,2.02
2019-02-26T01:17:18.645Z,1.94
2019-02-26T01:19:48.682Z,1.91
2019-02-26T01:22:18.950Z,1.85
2019-02-26T01:24:49.777Z,1.80
2019-02-26T01:27:21.100Z,1.69
2019-02-26T01:29:53.470Z,1.71
2019-02-26T01:32:24.914Z,1.67
2019-02-26T01:34:55.178Z,1.59
2019-02-26T01:37:27.691Z,1.62
2019-02-26T01:39:57.379Z,1.60
2019-02-26T01:42:29.426Z,1.60
2019-02-26T01:44:59.542Z,1.58
2019-02-26T01:47:32.107Z,1.61
2019-02-26T01:50:04.082Z,1.56
2019-02-26T01:52:34.223Z,1.52
2019-02-26T01:55:05.946Z,1.49
2019-02-26T01:57:36.199Z,1.57
2019-02-26T02:00:19.407Z,1.61
2019-02-26T02:02:49.682Z,1.61
2019-02-26T02:05:21.592Z,1.67
2019-02-26T02:07:53.547Z,1.63
2019-02-26T02:10:23.665Z,1.72
2019-02-26T02:12:57.345Z,1.74
2019-02-26T02:15:25.842Z,1.79
2019-02-26T02:17:57.706Z,1.77
2019-02-26T02:20:28.019Z,1.71
2019-02-26T02:23:00.473Z,1.70
2019-02-26T02:25:33.209Z,1.76
2019-02-26T02:28:04.417Z,1.74
2019-02-26T02:30:35.416Z,1.79
2019-02-26T02:33:06.140Z,1.79
2019-02-26T02:35:36.338Z,1.81
2019-02-26T02:38:06.755Z,1.79
2019-02-26T02:40:39.881Z,1.78
2019-02-26T02:43:10.024Z,1.83
2019-02-26T02:45:40.814Z,1.82
2019-02-26T02:48:11.769Z,1.81
2019-02-26T02:50:43.046Z,1.86
2019-02-26T02:53:13.360Z,1.91
2019-02-26T02:55:46.402Z,1.95
2019-02-26T02:58:18.180Z,2.01
2019-02-26T03:00:49.313Z,1.88
2019-02-26T03:03:19.489Z,1.89
2019-02-26T03:05:49.706Z,1.90
2019-02-26T03:08:22.323Z,1.87
2019-02-26T03:10:51.884Z,1.88
2019-02-26T03:13:24.879Z,1.81
2019-02-26T03:15:56.188Z,1.80
2019-02-26T03:18:25.852Z,1.81
2019-02-26T03:20:56.717Z,1.83
2019-02-26T03:23:28.028Z,1.77
2019-02-26T03:25:58.224Z,1.76
2019-02-26T03:28:28.545Z,1.79
2019-02-26T03:30:58.767Z,1.73
2019-02-26T03:33:29.872Z,1.85
2019-02-26T03:36:00.095Z,1.80
2019-02-26T03:38:30.456Z,1.93
2019-02-26T03:41:03.310Z,1.79
2019-02-26T03:43:34.192Z,1.68
2019-02-26T03:46:04.538Z,1.62
2019-02-26T03:48:34.717Z,1.61
2019-02-26T03:51:04.935Z,1.51
2019-02-26T03:53:36.322Z,1.53
2019-02-26T03:56:08.025Z,1.42
2019-02-26T03:58:39.070Z,1.40
2019-02-26T04:01:10.935Z,1.37
2019-02-26T04:03:42.521Z,1.32
2019-02-26T04:06:12.861Z,1.20
2019-02-26T04:08:46.166Z,1.22
2019-02-26T04:11:16.822Z,1.24
2019-02-26T04:13:49.482Z,1.17
2019-02-26T04:16:18.918Z,1.08
2019-02-26T04:18:51.978Z,1.17
2019-02-26T04:21:21.314Z,1.21
2019-02-26T04:23:51.567Z,1.28
2019-02-26T04:26:29.133Z,1.26
2019-02-26T04:29:08.750Z,1.37
2019-02-26T04:31:50.248Z,1.31
2019-02-26T04:34:26.550Z,1.30
2019-02-26T04:37:24.799Z,1.28
2019-02-26T04:40:19.229Z,1.40
2019-02-26T04:43:10.336Z,1.40
2019-02-26T04:45:44.107Z,1.33
2019-02-26T04:48:19.519Z,1.31
2019-02-26T04:50:49.438Z,1.42
2019-02-26T04:53:19.668Z,1.48
2019-02-26T04:55:49.949Z,1.57
2019-02-26T04:58:22.258Z,1.49
2019-02-26T05:00:52.137Z,1.58
2019-02-26T05:03:22.352Z,1.52
2019-02-26T05:05:55.941Z,1.43
2019-02-26T05:08:24.554Z,1.45
2019-02-26T05:10:57.287Z,1.38
2019-02-26T05:13:28.926Z,1.39
2019-02-26T05:15:58.692Z,1.48
2019-02-26T05:18:31.631Z,1.58
2019-02-26T05:21:02.752Z,1.49
2019-02-26T05:23:33.660Z,1.44
2019-02-26T05:26:05.609Z,1.54
2019-02-26T05:28:37.887Z,1.50
2019-02-26T05:31:09.077Z,1.48
2019-02-26T05:33:39.590Z,1.62
2019-02-26T05:36:12.125Z,1.64
2019-02-26T05:38:42.538Z,1.63
2019-02-26T05:41:12.918Z,1.77
2019-02-26T05:43:43.171Z,1.78
2019-02-26T05:46:15.673Z,1.77
2019-02-26T05:48:46.190Z,1.94
2019-02-26T05:51:17.290Z,2.08
2019-02-26T05:53:47.500Z,2.27
2019-02-26T05:56:20.192Z,2.04
2019-02-26T05:58:49.703Z,2.06
2019-02-26T06:01:21.827Z,2.30
2019-02-26T06:03:51.990Z,2.25
2019-02-26T06:06:22.289Z,2.13
2019-02-26T06:08:55.246Z,2.18
2019-02-26T06:11:28.313Z,2.21
2019-02-26T06:13:58.432Z,2.20
2019-02-26T06:16:28.953Z,2.14
2019-02-26T06:19:00.252Z,2.32
2019-02-26T06:21:30.489Z,2.42
2019-02-26T06:24:00.611Z,2.29
2019-02-26T06:26:35.095Z,2.11
2019-02-26T06:29:02.780Z,2.08
2019-02-26T06:31:33.050Z,2.18
2019-02-26T06:34:05.645Z,2.32
2019-02-26T06:36:36.132Z,2.47
2019-02-26T06:39:06.375Z,2.49
2019-02-26T06:41:39.506Z,2.57
2019-02-26T06:44:08.686Z,2.58
2019-02-26T06:46:38.960Z,2.61
2019-02-26T06:49:09.192Z,2.77
2019-02-26T06:51:39.487Z,2.88
2019-02-26T06:54:09.683Z,2.78
2019-02-26T06:56:43.728Z,2.58
2019-02-26T06:59:12.335Z,2.57
2019-02-26T07:01:42.739Z,2.58
2019-02-26T07:04:13.082Z,2.49
2019-02-26T07:06:43.419Z,2.34
2019-02-26T07:09:15.799Z,2.45
2019-02-26T07:11:45.661Z,2.83
2019-02-26T07:14:15.882Z,2.85
2019-02-26T07:16:46.158Z,3.02
2019-02-26T07:19:16.743Z,2.96
2019-02-26T07:21:48.132Z,3.17
2019-02-26T07:24:20.685Z,3.26
2019-02-26T07:26:50.715Z,3.08
2019-02-26T07:29:22.396Z,2.84
2019-02-26T07:31:54.101Z,2.69
2019-02-26T07:34:25.071Z,2.53
2019-02-26T07:36:57.258Z,2.59
2019-02-26T07:39:27.379Z,2.64
2019-02-26T07:41:57.659Z,2.64
2019-02-26T07:44:28.451Z,2.82
2019-02-26T07:47:00.629Z,3.10
2019-02-26T07:49:30.447Z,3.04
2019-02-26T07:52:03.141Z,2.87
2019-02-26T07:54:32.411Z,2.78
2019-02-26T07:57:02.823Z,2.84
2019-02-26T07:59:36.484Z,2.89
2019-02-26T08:02:06.349Z,2.99
2019-02-26T08:04:38.768Z,2.96
2019-02-26T08:07:08.789Z,2.99
2019-02-26T08:09:39.029Z,3.09
2019-02-26T08:12:11.268Z,3.24
2019-02-26T08:14:42.863Z,3.14
2019-02-26T08:17:13.123Z,2.95
2019-02-26T08:19:46.371Z,2.85
2019-02-26T08:22:15.093Z,2.70
2019-02-26T08:24:46.081Z,2.71
2019-02-26T08:27:17.079Z,2.82
2019-02-26T08:29:49.283Z,2.90
2019-02-26T08:32:21.005Z,3.18
2019-02-26T08:34:51.026Z,3.32
2019-02-26T08:37:22.253Z,3.37
2019-02-26T08:39:52.457Z,3.41
2019-02-26T08:42:22.721Z,3.42
2019-02-26T08:44:54.192Z,3.36
2019-02-26T08:47:24.639Z,3.13
2019-02-26T08:49:54.778Z,3.08
2019-02-26T08:52:29.312Z,3.20
2019-02-26T08:54:59.302Z,3.55
2019-02-26T08:57:29.557Z,3.66
2019-02-26T08:59:59.758Z,3.74
2019-02-26T09:02:29.906Z,3.97
2019-02-26T09:05:01.565Z,3.96
2019-02-26T09:07:31.907Z,3.88
2019-02-26T09:10:02.065Z,3.51
2019-02-26T09:12:32.202Z,3.36
2019-02-26T09:15:02.519Z,3.39
2019-02-26T09:17:36.921Z,3.57
2019-02-26T09:20:09.763Z,3.78
2019-02-26T09:22:40.599Z,3.53
2019-02-26T09:25:11.870Z,3.67
2019-02-26T09:27:42.930Z,3.96
2019-02-26T09:30:20.221Z,3.99
2019-02-26T09:32:52.421Z,3.80
2019-02-26T09:35:26.918Z,3.72
2019-02-26T09:37:57.888Z,3.66
2019-02-26T09:40:29.067Z,3.62
2019-02-26T09:43:00.139Z,3.92
2019-02-26T09:45:30.453Z,4.09
2019-02-26T09:48:01.258Z,4.31
2019-02-26T09:50:31.597Z,3.94
2019-02-26T09:53:01.871Z,3.85
2019-02-26T09:55:32.179Z,3.61
2019-02-26T09:58:02.669Z,3.77
2019-02-26T10:00:33.016Z,3.73
2019-02-26T10:03:05.270Z,4.22
2019-02-26T10:05:35.525Z,3.95
2019-02-26T10:08:19.778Z,4.18
2019-02-26T10:10:51.844Z,4.12
2019-02-26T10:13:23.271Z,3.72
2019-02-26T10:15:53.746Z,3.84
2019-02-26T10:18:25.643Z,4.12
2019-02-26T10:20:57.554Z,4.03
2019-02-26T10:23:33.022Z,4.11
2019-02-26T10:26:05.202Z,4.38
2019-02-26T10:28:39.343Z,4.46
2019-02-26T10:31:09.630Z,4.41
2019-02-26T10:33:41.185Z,4.60
2019-02-26T10:36:12.953Z,4.46
2019-02-26T10:38:43.831Z,4.51
2019-02-26T10:41:14.781Z,4.34
2019-02-26T10:43:45.170Z,4.45
2019-02-26T10:46:16.901Z,4.29
2019-02-26T10:48:48.073Z,4.08
2019-02-26T10:51:26.112Z,3.60
2019-02-26T10:53:51.849Z,3.66
2019-02-26T10:56:28.017Z,3.43
2019-02-26T10:59:03.565Z,3.03
2019-02-26T11:01:33.508Z,3.08
2019-02-26T11:04:08.355Z,2.97
2019-02-26T11:06:41.594Z,2.81
2019-02-26T11:09:11.114Z,2.94
2019-02-26T11:11:42.359Z,2.95
2019-02-26T11:14:15.981Z,2.68
2019-02-26T11:16:47.231Z,2.70
2019-02-26T11:19:17.535Z,2.65
2019-02-26T11:21:50.078Z,2.39
2019-02-26T11:24:23.441Z,2.31
2019-02-26T11:26:51.947Z,2.24
2019-02-26T11:29:22.288Z,2.42
2019-02-26T11:31:52.575Z,2.46
2019-02-26T11:34:25.471Z,2.47
2019-02-26T11:36:57.950Z,2.49
2019-02-26T11:39:28.266Z,2.58
2019-02-26T11:42:00.727Z,2.70
2019-02-26T11:44:30.514Z,2.47
2019-02-26T11:47:00.714Z,2.43
2019-02-26T11:49:31.324Z,2.37
2019-02-26T11:52:04.402Z,2.27
2019-02-26T11:54:35.083Z,2.23
2019-02-26T11:57:11.215Z,2.09
2019-02-26T11:59:42.791Z,2.16
2019-02-26T12:02:14.240Z,2.11
2019-02-26T12:04:44.415Z,2.04
2019-02-26T12:07:14.609Z,1.92
2019-02-26T12:09:44.909Z,2.04
2019-02-26T12:12:15.141Z,2.15
2019-02-26T12:14:48.298Z,2.36
2019-02-26T12:17:17.611Z,2.16
2019-02-26T12:19:48.641Z,2.04
2019-02-26T12:22:20.421Z,1.89
2019-02-26T12:24:55.768Z,2.05
2019-02-26T12:27:23.776Z,1.85
2019-02-26T12:29:59.550Z,1.72
2019-02-26T12:32:29.910Z,1.86
2019-02-26T12:35:00.290Z,1.78
2019-02-26T12:37:30.616Z,1.79
2019-02-26T12:40:02.069Z,1.93
2019-02-26T12:42:32.283Z,1.91
2019-02-26T12:45:04.861Z,2.02
2019-02-26T12:47:39.804Z,1.98
2019-02-26T12:50:12.357Z,1.98
2019-02-26T12:52:47.484Z,2.11
2019-02-26T12:55:17.756Z,2.07
2019-02-26T12:57:49.780Z,2.04
2019-02-26T13:00:23.602Z,2.04
2019-02-26T13:02:53.871Z,2.02
2019-02-26T13:05:24.172Z,2.01
2019-02-26T13:07:55.368Z,1.95
2019-02-26T13:10:26.537Z,2.09
2019-02-26T13:13:00.127Z,2.12
2019-02-26T13:15:30.250Z,2.12
2019-02-26T13:18:01.457Z,2.12
2019-02-26T13:20:34.416Z,2.29
2019-02-26T13:23:16.963Z,2.40
2019-02-26T13:25:37.306Z,2.41
2019-02-26T13:28:07.597Z,2.40
2019-02-26T13:30:37.944Z,2.21
2019-02-26T13:33:12.875Z,2.16
2019-02-26T13:35:42.834Z,2.20
2019-02-26T13:38:13.619Z,2.33
2019-02-26T13:40:45.495Z,2.41
2019-02-26T13:43:15.727Z,2.40
2019-02-26T13:45:47.710Z,2.31
2019-02-26T13:48:17.966Z,2.40
2019-02-26T13:50:50.656Z,2.39
2019-02-26T13:53:20.920Z,2.32
2019-02-26T13:55:53.139Z,2.37
2019-02-26T13:58:23.403Z,2.41
2019-02-26T14:00:57.333Z,2.35
2019-02-26T14:03:36.947Z,2.42
2019-02-26T14:06:13.998Z,2.40
2019-02-26T14:08:44.325Z,2.48
2019-02-26T14:11:14.824Z,2.48
2019-02-26T14:13:45.183Z,2.29
2019-02-26T14:16:18.732Z,2.43
2019-02-26T14:18:49.087Z,2.31
2019-02-26T14:21:19.596Z,2.45
2019-02-26T14:23:50.207Z,2.16
2019-02-26T14:26:21.083Z,2.30
2019-02-26T14:28:52.893Z,2.26
2019-02-26T14:31:23.732Z,2.20
2019-02-26T14:33:55.859Z,2.04
2019-02-26T14:36:31.527Z,2.18
2019-02-26T14:39:03.820Z,2.21
2019-02-26T14:41:35.601Z,2.05
2019-02-26T14:44:12.448Z,2.04
2019-02-26T14:47:09.349Z,1.94
2019-02-26T14:49:53.759Z,2.09
2019-02-26T14:52:33.551Z,2.11
2019-02-26T14:55:11.121Z,2.11
2019-02-26T14:58:02.520Z,1.99
2019-02-26T15:00:45.357Z,2.08
2019-02-26T15:03:33.906Z,1.94
2019-02-26T15:06:23.489Z,2.01
2019-02-26T15:11:53.506Z,2.05
2019-02-26T15:14:23.952Z,2.07
2019-02-26T15:16:54.263Z,2.21
2019-02-26T15:19:25.013Z,2.16
2019-02-26T15:21:57.216Z,2.25
2019-02-26T15:24:27.727Z,2.22
2019-02-26T15:27:16.301Z,2.12
2019-02-26T15:29:50.550Z,2.17
2019-02-26T15:32:20.828Z,2.00
2019-02-26T15:34:51.093Z,1.94
2019-02-26T15:37:21.348Z,1.88
2019-02-26T15:39:51.615Z,1.99
2019-02-26T15:42:22.880Z,2.01
2019-02-26T15:44:53.126Z,1.95
2019-02-26T15:47:23.576Z,1.96
2019-02-26T15:49:53.787Z,1.97
2019-02-26T15:52:24.053Z,2.13
2019-02-26T15:54:57.646Z,2.08
2019-02-26T15:57:28.570Z,2.04
2019-02-26T16:00:00.407Z,2.12
2019-02-26T16:02:30.908Z,2.13
2019-02-26T16:05:02.809Z,2.09
2019-02-26T16:07:33.279Z,2.04
2019-02-26T16:10:16.413Z,1.87
2019-02-26T16:15:38.585Z,2.02
2019-02-26T16:18:18.040Z,2.09
2019-02-26T16:20:55.835Z,2.07
2019-02-26T16:23:37.765Z,2.11
2019-02-26T16:26:09.861Z,1.99
2019-02-26T16:28:40.150Z,2.17
2019-02-26T16:31:10.411Z,2.00
2019-02-26T16:33:40.713Z,1.97
2019-02-26T16:36:12.963Z,2.05
2019-02-26T16:38:42.968Z,2.11
2019-02-26T16:41:13.374Z,2.08
2019-02-26T16:43:43.940Z,2.07
2019-02-26T16:46:14.493Z,2.12
2019-02-26T16:48:45.374Z,2.11
2019-02-26T16:51:18.551Z,2.12
2019-02-26T16:53:47.647Z,2.09
2019-02-26T16:56:21.634Z,2.12
2019-02-26T16:58:49.807Z,2.07
2019-02-26T17:01:21.749Z,1.99
2019-02-26T17:03:52.020Z,2.08
2019-02-26T17:06:22.244Z,2.02
2019-02-26T17:08:52.503Z,1.97
2019-02-26T17:11:22.861Z,1.79
2019-02-26T17:13:53.050Z,1.79
2019-02-26T17:16:23.248Z,1.89
2019-02-26T17:18:53.482Z,1.79
2019-02-26T17:21:23.728Z,1.75
2019-02-26T17:23:54.014Z,1.84
2019-02-26T17:26:24.225Z,1.92
2019-02-26T17:28:54.499Z,1.94
2019-02-26T17:31:24.693Z,1.75
2019-02-26T17:33:54.925Z,1.84
2019-02-26T17:36:25.147Z,1.95
2019-02-26T17:38:55.372Z,1.87
2019-02-26T17:41:25.553Z,1.92
2019-02-26T17:43:58.770Z,1.88
2019-02-26T17:46:28.680Z,1.92
2019-02-26T17:49:02.642Z,1.83
2019-02-26T17:51:31.284Z,1.81
2019-02-26T17:54:01.971Z,1.85
2019-02-26T17:56:33.499Z,1.77
2019-02-26T17:59:03.822Z,1.74
2019-02-26T18:01:34.032Z,1.67
2019-02-26T18:04:04.296Z,1.82
2019-02-26T18:06:34.497Z,1.79
2019-02-26T18:09:05.236Z,1.60
2019-02-26T18:11:36.563Z,1.63
2019-02-26T18:14:06.928Z,1.66
2019-02-26T18:16:37.141Z,1.53
2019-02-26T18:19:09.744Z,1.67
2019-02-26T18:21:43.399Z,1.61
2019-02-26T18:24:11.260Z,1.70
2019-02-26T18:26:41.491Z,1.53
2019-02-26T18:29:11.733Z,1.54
2019-02-26T18:31:41.934Z,1.57
2019-02-26T18:34:14.037Z,1.58
2019-02-26T18:36:45.475Z,1.66
2019-02-26T18:39:16.144Z,1.69
2019-02-26T18:41:50.710Z,1.70
2019-02-26T18:44:20.527Z,1.74
2019-02-26T18:46:51.120Z,1.71
2019-02-26T18:49:22.399Z,1.63
2019-02-26T18:51:52.644Z,1.69
2019-02-26T18:54:22.887Z,1.67
2019-02-26T18:56:53.937Z,1.70
2019-02-26T18:59:24.263Z,1.67
2019-02-26T19:01:54.534Z,1.78
2019-02-26T19:04:24.808Z,1.67
2019-02-26T19:06:55.015Z,1.72
2019-02-26T19:09:25.316Z,1.60
2019-02-26T19:11:57.715Z,1.70
2019-02-26T19:14:27.387Z,1.70
2019-02-26T19:16:57.603Z,1.62
2019-02-26T19:19:27.750Z,1.76
2019-02-26T19:21:58.999Z,1.75
2019-02-26T19:24:29.395Z,1.61
2019-02-26T19:26:59.601Z,1.69
2019-02-26T19:29:31.548Z,1.64
2019-02-26T19:32:01.786Z,1.68
2019-02-26T19:34:32.029Z,1.69
2019-02-26T19:37:02.239Z,1.73
2019-02-26T19:39:33.751Z,1.75
2019-02-26T19:42:04.487Z,1.67
2019-02-26T19:44:36.447Z,1.71
2019-02-26T19:47:06.808Z,1.71
2019-02-26T19:49:39.686Z,1.85
2019-02-26T19:52:09.381Z,1.67
2019-02-26T19:54:41.571Z,1.43
2019-02-26T19:57:12.322Z,1.36
2019-02-26T19:59:46.784Z,1.52
2019-02-26T20:02:14.724Z,1.62
2019-02-26T20:04:44.991Z,1.55
2019-02-26T20:07:15.193Z,1.66
2019-02-26T20:09:45.364Z,1.60
2019-02-26T20:12:15.592Z,1.74
2019-02-26T20:14:48.551Z,1.70
2019-02-26T20:17:17.720Z,1.69
2019-02-26T20:19:48.038Z,1.64
2019-02-26T20:22:18.448Z,1.75
2019-02-26T20:24:48.719Z,1.82
2019-02-26T20:27:21.647Z,1.88
2019-02-26T20:29:50.887Z,1.75
2019-02-26T20:32:21.069Z,1.65
2019-02-26T20:34:51.328Z,1.67
2019-02-26T20:37:22.003Z,1.67
2019-02-26T20:39:53.415Z,1.57
2019-02-26T20:42:23.610Z,1.70
2019-02-26T20:44:58.990Z,1.54
2019-02-26T20:47:31.535Z,1.57
2019-02-26T20:50:01.047Z,1.64
2019-02-26T20:52:32.952Z,1.60
2019-02-26T20:55:03.020Z,1.60
2019-02-26T20:57:34.905Z,1.76
2019-02-26T21:00:08.207Z,1.76
2019-02-26T21:02:38.394Z,1.68
2019-02-26T21:05:09.641Z,1.76
2019-02-26T21:07:39.774Z,1.68
2019-02-26T21:10:15.031Z,1.57
2019-02-26T21:12:43.855Z,1.53
2019-02-26T21:15:24.803Z,1.67
2019-02-26T21:17:57.738Z,1.54
2019-02-26T21:20:26.632Z,1.41
2019-02-26T21:22:56.810Z,1.41
2019-02-26T21:25:26.985Z,1.57
2019-02-26T21:28:00.785Z,1.53
2019-02-26T21:30:28.975Z,1.51
2019-02-26T21:32:59.183Z,1.61
2019-02-26T21:35:29.439Z,1.59
2019-02-26T21:37:59.636Z,1.52
2019-02-26T21:40:29.767Z,1.37
2019-02-26T21:43:02.407Z,1.43
2019-02-26T21:45:32.566Z,1.45
2019-02-26T21:48:03.316Z,1.50
2019-02-26T21:50:33.779Z,1.55
2019-02-26T21:53:03.963Z,1.49
2019-02-26T21:55:43.978Z,1.63
2019-02-26T21:58:05.894Z,1.67
2019-02-26T22:00:36.745Z,1.71
2019-02-26T22:03:07.832Z,1.69
2019-02-26T22:05:38.435Z,1.58
2019-02-26T22:08:08.563Z,1.61
2019-02-26T22:10:40.224Z,1.61
2019-02-26T22:13:10.540Z,1.54
2019-02-26T22:15:42.040Z,1.34
2019-02-26T22:18:12.470Z,1.42
2019-02-26T22:20:42.632Z,1.43
2019-02-26T22:23:14.833Z,1.43
2019-02-26T22:25:44.557Z,1.49
2019-02-26T22:28:14.658Z,1.45
2019-02-26T22:30:44.822Z,1.48
2019-02-26T22:33:14.933Z,1.50
2019-02-26T22:35:45.080Z,1.56
2019-02-26T22:38:16.006Z,1.48
2019-02-26T22:40:46.199Z,1.49
2019-02-26T22:43:16.290Z,1.40
2019-02-26T22:45:47.511Z,1.30
2019-02-26T22:48:17.805Z,1.40
2019-02-26T22:50:48.247Z,1.42
2019-02-26T22:53:18.533Z,1.53
2019-02-26T22:55:49.815Z,1.50
2019-02-26T22:58:20.652Z,1.56
2019-02-26T23:00:58.439Z,1.61
2019-02-26T23:03:29.467Z,1.41
2019-02-26T23:05:59.818Z,1.49
2019-02-26T23:08:30.212Z,1.31
2019-02-26T23:11:00.680Z,1.41
2019-02-26T23:13:31.890Z,1.36
2019-02-26T23:16:03.047Z,1.38
2019-02-26T23:18:33.335Z,1.41
2019-02-26T23:21:03.701Z,1.32
2019-02-26T23:23:34.243Z,1.36
2019-02-26T23:26:08.630Z,1.30
2019-02-26T23:28:37.078Z,1.33
2019-02-26T23:31:07.925Z,1.19
2019-02-26T23:33:40.780Z,1.13
2019-02-26T23:36:10.870Z,1.17
2019-02-26T23:38:43.813Z,1.17
2019-02-26T23:41:13.212Z,1.21
2019-02-26T23:43:45.390Z,1.23
2019-02-26T23:46:21.401Z,1.33
2019-02-26T23:48:51.689Z,1.32
2019-02-26T23:51:22.134Z,1.33
2019-02-26T23:53:52.445Z,1.26
2019-02-26T23:56:22.802Z,1.31
2019-02-26T23:58:53.098Z,1.31
